»·PEaware :: AAL234 KIFP-KBUR

AAL234 :: KIFP-KBUR

FLIGHT INFORMATION

Flight Status: Arrived
Operator:
American Airlines
More flights by this operator :: More flights under this callsign
Pilot: Peter H. (12565)
Aircraft: AIRBUS A320
(A320)
More flights by this aircraft type
Origin: KIFP Laughlin/Bullhead Intl
United States
Destination: KBUR Bob Hope-Burbank
United States
More flights between these airports :: More routes between these airports
Route: +EED JANNY4
File this flight plan on PilotEdge
Remarks:
Altitude:
(Current/Filed)
22,000ft
Speed:
(Current/Filed)
450kts
Departed: 29-Jun-18 03:19 PM
Arrived: 29-Jun-18 04:04 PM
Distance/Time
Traveled:
196nm/0:45
Distance/Time
To Go:
Arrived

Flight Plot

Page will automatically refresh every two minutes.

Flight plan parsing failed; only flown route is shown


Map Options




Map Legend


Flown Route
Filed Route
Departure Airport
Arrival Airport
Navaid (VOR, NDB)
Fix

Horizontal Profiles

Position Reports

Time Latitude Longitude Heading Altitude Ground
Speed
29-Jun-18 14:45 35.164316 -114.556280 86 671ft 0kts
29-Jun-18 14:46 35.164316 -114.556280 86 671ft 0kts
29-Jun-18 14:47 35.164316 -114.556280 86 671ft 0kts
29-Jun-18 14:48 35.164316 -114.556280 86 671ft 0kts
29-Jun-18 14:49 35.164316 -114.556279 86 671ft 0kts
29-Jun-18 14:50 35.164316 -114.556279 86 671ft 0kts
29-Jun-18 14:52 35.164316 -114.556279 86 671ft 0kts
29-Jun-18 14:53 35.164316 -114.556279 86 671ft 0kts
29-Jun-18 14:54 35.164316 -114.556279 86 671ft 0kts
29-Jun-18 14:55 35.164316 -114.556279 86 671ft 0kts
29-Jun-18 14:56 35.164316 -114.556279 86 671ft 0kts
29-Jun-18 14:56 35.164316 -114.556279 86 671ft 0kts
29-Jun-18 14:58 35.164316 -114.556279 86 671ft 0kts
29-Jun-18 14:59 35.164316 -114.556279 86 671ft 0kts
29-Jun-18 15:00 35.164316 -114.556279 86 671ft 0kts
29-Jun-18 15:01 35.164316 -114.556279 86 671ft 0kts
29-Jun-18 15:01 35.164316 -114.556279 86 671ft 0kts
29-Jun-18 15:02 35.164316 -114.556279 86 671ft 0kts
29-Jun-18 15:03 35.164316 -114.556279 86 671ft 0kts
29-Jun-18 15:04 35.164316 -114.556279 86 671ft 0kts
29-Jun-18 15:05 35.164316 -114.556279 86 671ft 0kts
29-Jun-18 15:07 35.164316 -114.556279 86 671ft 0kts
29-Jun-18 15:07 35.164316 -114.556279 86 671ft 0kts
29-Jun-18 15:08 35.164316 -114.556279 86 671ft 0kts
29-Jun-18 15:09 35.164316 -114.556279 86 671ft 0kts
29-Jun-18 15:10 35.164316 -114.556279 86 671ft 0kts
29-Jun-18 15:11 35.164316 -114.556279 86 671ft 0kts
29-Jun-18 15:12 35.164316 -114.556279 86 671ft 0kts
29-Jun-18 15:13 35.164316 -114.556279 86 671ft 0kts
29-Jun-18 15:14 35.164316 -114.556279 86 671ft 0kts
29-Jun-18 15:15 35.164316 -114.556279 86 671ft 0kts
29-Jun-18 15:16 35.164678 -114.556255 330 670ft 7kts
29-Jun-18 15:17 35.165480 -114.558835 346 646ft 8kts
29-Jun-18 15:18 35.165451 -114.560160 184 634ft 13kts
29-Jun-18 15:19 35.131323 -114.555689 174 1889ft 195kts
29-Jun-18 15:20 35.067485 -114.549403 176 4141ft 266kts
29-Jun-18 15:21 34.991947 -114.540174 176 7084ft 279kts
29-Jun-18 15:22 34.920190 -114.555060 232 9947ft 288kts
29-Jun-18 15:23 34.892656 -114.652162 252 11694ft 334kts
29-Jun-18 15:24 34.866086 -114.761830 252 14246ft 344kts
29-Jun-18 15:25 34.845575 -114.875881 266 16537ft 358kts
29-Jun-18 15:26 34.842348 -114.993263 267 18630ft 366kts
29-Jun-18 15:27 34.838547 -115.117831 268 20607ft 376kts
29-Jun-18 15:28 34.834481 -115.245943 269 21881ft 381kts
29-Jun-18 15:29 34.830030 -115.383018 269 21867ft 430kts
29-Jun-18 15:30 34.824893 -115.533842 269 21911ft 459kts
29-Jun-18 15:31 34.819394 -115.688214 268 21989ft 459kts
29-Jun-18 15:32 34.813921 -115.837825 268 21984ft 459kts
29-Jun-18 15:33 34.808160 -115.990467 268 21984ft 459kts
29-Jun-18 15:34 34.802129 -116.145077 268 21984ft 459kts
29-Jun-18 15:35 34.796215 -116.300244 269 21940ft 460kts
29-Jun-18 15:36 34.791197 -116.451130 269 21908ft 460kts
29-Jun-18 15:37 34.782853 -116.605911 265 21912ft 460kts
29-Jun-18 15:38 34.768237 -116.756690 264 21910ft 460kts
29-Jun-18 15:39 34.753273 -116.908363 264 21527ft 443kts
29-Jun-18 15:40 34.738765 -117.051783 266 20436ft 437kts
29-Jun-18 15:41 34.724777 -117.188748 266 19379ft 436kts
29-Jun-18 15:42 34.710110 -117.330625 266 18245ft 434kts
29-Jun-18 15:43 34.695520 -117.469331 265 17068ft 388kts
29-Jun-18 15:44 34.683454 -117.582632 266 16118ft 306kts
29-Jun-18 15:45 34.673747 -117.674988 266 15491ft 274kts
29-Jun-18 15:46 34.664415 -117.763243 265 14732ft 274kts
29-Jun-18 15:47 34.654659 -117.854031 264 12921ft 292kts
29-Jun-18 15:48 34.643768 -117.953884 264 10964ft 311kts
29-Jun-18 15:49 34.632719 -118.053692 264 9150ft 288kts
29-Jun-18 15:50 34.614688 -118.139883 258 9030ft 256kts
29-Jun-18 15:51 34.597813 -118.215992 258 9026ft 246kts
29-Jun-18 15:52 34.581461 -118.289489 258 9025ft 246kts
29-Jun-18 15:53 34.565050 -118.362849 258 9036ft 246kts
29-Jun-18 15:54 34.547564 -118.440720 255 8334ft 254kts
29-Jun-18 15:55 34.513001 -118.502427 204 8086ft 252kts
29-Jun-18 15:56 34.457301 -118.546768 213 6782ft 265kts
29-Jun-18 15:57 34.402885 -118.538775 142 5255ft 251kts
29-Jun-18 15:58 34.363235 -118.502418 141 5034ft 216kts
29-Jun-18 15:59 34.329095 -118.468940 139 5198ft 209kts
29-Jun-18 16:00 34.300286 -118.435749 133 4385ft 173kts
29-Jun-18 16:01 34.275354 -118.405885 139 3055ft 153kts
29-Jun-18 16:02 34.247656 -118.379081 144 1871ft 137kts
29-Jun-18 16:03 34.213873 -118.360811 166 880ft 131kts
29-Jun-18 16:04 34.199019 -118.356534 132 717ft 1kts
29-Jun-18 16:05 34.197901 -118.355121 173 711ft 10kts
29-Jun-18 16:06 34.196774 -118.354778 173 708ft 4kts

Navigation Log

Ident Type
Flight plan parsing failed, navigation log unavailable